Terminal Aerodrome Forecast
Issued by NWS

Home | Current Version | Previous Version | Text Only | Print | Product List | Glossary On
Versions: 1 2 3 4 5 6 7 8 9 10 11 12 13 14 15 16 17 18 19 20 21 22 23 24 25 26 27
845
FTUS43 KLOT 250520
TAFMDW
TAF
KMDW 250520Z 2506/2606 12007KT P6SM FEW070
     FM251100 14009KT P6SM SCT070
     FM251400 16012KT P6SM SCT050 BKN250
     FM251900 17012G17KT P6SM BKN050
     FM252200 19012KT P6SM VCSH BKN050
      TEMPO 2600/2603 3SM TSRA BKN025CB
     FM260300 28012KT P6SM SCT060 BKN250=

USA.gov is the U.S. government's official web portal to all federal, state and local government web resources and services.